createdAt,value
2022-12-23T00:03:28.510Z,98989.30
2022-12-23T00:07:31.161Z,98987.35
2022-12-23T00:11:33.070Z,98986.13
2022-12-23T00:15:34.933Z,98987.85
2022-12-23T00:19:36.818Z,98989.05
2022-12-23T00:23:42.419Z,98988.29
2022-12-23T00:28:00.888Z,98989.28
2022-12-23T00:32:02.924Z,98989.12
2022-12-23T00:36:12.717Z,98989.77
2022-12-23T00:40:33.802Z,98992.39
2022-12-23T00:44:35.676Z,98992.95
2022-12-23T00:48:56.264Z,98992.96
2022-12-23T00:52:58.246Z,98992.66
2022-12-23T00:57:01.095Z,98993.61
2022-12-23T01:01:21.805Z,98991.86
2022-12-23T01:05:36.039Z,98994.34
2022-12-23T01:09:37.937Z,98992.41
2022-12-23T01:13:40.059Z,98994.38
2022-12-23T01:17:41.926Z,98995.52
2022-12-23T01:21:43.897Z,98997.66
2022-12-23T01:25:47.570Z,98991.27
2022-12-23T01:29:49.478Z,98994.96
2022-12-23T01:33:52.386Z,98994.90
2022-12-23T01:37:54.212Z,98997.91
2022-12-23T01:42:14.819Z,98998.69
2022-12-23T01:46:17.469Z,99001.62
2022-12-23T01:50:25.106Z,99004.50
2022-12-23T01:54:27.109Z,99006.52
2022-12-23T01:58:36.347Z,99006.20
2022-12-23T02:03:00.254Z,99004.10
2022-12-23T02:07:21.626Z,99007.90
2022-12-23T02:11:42.826Z,99008.19
2022-12-23T02:16:13.428Z,99007.27
2022-12-23T02:20:21.469Z,99011.17
2022-12-23T02:24:42.051Z,99013.95
2022-12-23T02:29:03.372Z,99018.08
2022-12-23T02:33:12.745Z,99017.96
2022-12-23T02:37:19.729Z,99016.44
2022-12-23T02:41:42.610Z,99025.96
2022-12-23T02:45:52.673Z,99020.13
2022-12-23T02:49:58.591Z,99028.96
2022-12-23T02:54:03.961Z,99034.67
2022-12-23T02:58:10.730Z,99038.33
2022-12-23T03:02:13.198Z,99033.63
2022-12-23T03:06:21.877Z,99032.45
2022-12-23T03:10:51.494Z,99032.02
2022-12-23T03:15:17.220Z,99033.00
2022-12-23T03:19:28.364Z,99038.67
2022-12-23T03:23:37.457Z,99044.98
2022-12-23T03:27:45.179Z,99046.15
2022-12-23T03:31:47.695Z,99049.98
2022-12-23T03:35:56.975Z,99043.82
2022-12-23T03:40:12.272Z,99046.11
2022-12-23T03:44:32.497Z,99045.14
2022-12-23T03:48:46.232Z,99043.67
2022-12-23T03:53:07.567Z,99049.36
2022-12-23T03:57:11.232Z,99047.23
2022-12-23T04:01:18.025Z,99047.95
2022-12-23T04:05:31.932Z,99049.43
2022-12-23T04:09:35.823Z,99050.30
2022-12-23T04:13:37.829Z,99055.48
2022-12-23T04:17:39.851Z,99056.77
2022-12-23T04:21:41.771Z,99053.69
2022-12-23T04:25:43.673Z,99055.67
2022-12-23T04:29:46.380Z,99057.92
2022-12-23T04:33:48.626Z,99057.13
2022-12-23T04:37:50.489Z,99059.26
2022-12-23T04:41:52.415Z,99065.14
2022-12-23T04:45:54.264Z,99066.84
2022-12-23T04:49:56.221Z,99069.13
2022-12-23T04:53:58.063Z,99067.86
2022-12-23T04:58:00.334Z,99064.95
2022-12-23T05:02:02.377Z,99061.05
2022-12-23T05:06:05.165Z,99059.57
2022-12-23T05:10:08.159Z,99057.27
2022-12-23T05:14:11.328Z,99068.18
2022-12-23T05:18:13.181Z,99075.11
2022-12-23T05:22:15.108Z,99075.07
2022-12-23T05:26:16.977Z,99084.73
2022-12-23T05:30:19.004Z,99085.55
2022-12-23T05:34:21.241Z,99088.13
2022-12-23T05:38:23.541Z,99089.33
2022-12-23T05:42:25.476Z,99092.91
2022-12-23T05:46:27.576Z,99086.80
2022-12-23T05:50:29.778Z,99093.69
2022-12-23T05:54:31.679Z,99100.16
2022-12-23T05:58:33.609Z,99115.02
2022-12-23T06:02:35.555Z,99119.08
2022-12-23T06:06:38.082Z,99125.77
2022-12-23T06:10:39.975Z,99131.83
2022-12-23T06:14:41.879Z,99136.60
2022-12-23T06:18:43.806Z,99140.60
2022-12-23T06:22:45.640Z,99146.88
2022-12-23T06:26:50.822Z,99152.02
2022-12-23T06:30:56.625Z,99157.08
2022-12-23T06:34:58.530Z,99164.70
2022-12-23T06:39:00.357Z,99164.20
2022-12-23T06:43:02.245Z,99165.86
2022-12-23T06:47:04.156Z,99162.93
2022-12-23T06:51:06.027Z,99167.25
2022-12-23T06:55:08.874Z,99163.19
2022-12-23T06:59:10.826Z,99164.88
2022-12-23T07:03:12.797Z,99163.54
2022-12-23T07:07:14.963Z,99165.71
2022-12-23T07:11:16.865Z,99168.38
2022-12-23T07:15:18.763Z,99159.80
2022-12-23T07:19:20.617Z,99166.34
2022-12-23T07:23:22.624Z,99176.86
2022-12-23T07:27:24.623Z,99182.34
2022-12-23T07:31:26.710Z,99181.12
2022-12-23T07:35:28.722Z,99181.37
2022-12-23T07:39:30.625Z,99178.04
2022-12-23T07:43:32.482Z,99178.45
2022-12-23T07:47:34.371Z,99182.05
2022-12-23T07:51:36.244Z,99194.54
2022-12-23T07:55:39.378Z,99199.85
2022-12-23T07:59:41.262Z,99207.26
2022-12-23T08:03:43.397Z,99209.52
2022-12-23T08:07:45.465Z,99205.80
2022-12-23T08:11:47.478Z,99209.44
2022-12-23T08:15:54.198Z,99210.13
2022-12-23T08:19:56.600Z,99212.94
2022-12-23T08:23:58.551Z,99215.11
2022-12-23T08:28:00.406Z,99202.66
2022-12-23T08:32:02.647Z,99193.46
2022-12-23T08:36:06.357Z,99185.13
2022-12-23T08:40:11.130Z,99190.81
2022-12-23T08:44:14.625Z,99188.63
2022-12-23T08:48:16.547Z,99184.37
2022-12-23T08:52:18.471Z,99170.95
2022-12-23T08:56:22.117Z,99166.98
2022-12-23T09:00:24.093Z,99162.14
2022-12-23T09:04:26.016Z,99165.17
2022-12-23T09:08:27.930Z,99163.41
2022-12-23T09:12:29.964Z,99165.96
2022-12-23T09:16:32.410Z,99165.28
2022-12-23T09:20:34.410Z,99161.36
2022-12-23T09:24:37.719Z,99151.25
2022-12-23T09:28:39.760Z,99149.57
2022-12-23T09:32:41.595Z,99146.33
2022-12-23T09:36:43.555Z,99142.98
2022-12-23T09:40:45.541Z,99143.99
2022-12-23T09:45:09.093Z,99141.40
2022-12-23T09:49:15.398Z,99129.88
2022-12-23T09:53:24.740Z,99121.49
2022-12-23T09:57:40.065Z,99114.63
2022-12-23T10:01:57.412Z,99103.61
2022-12-23T10:06:10.607Z,99096.98
2022-12-23T10:10:39.484Z,99098.63
2022-12-23T10:14:43.090Z,99089.74
2022-12-23T10:18:47.899Z,99083.39
2022-12-23T10:22:51.053Z,99080.70
2022-12-23T10:27:18.909Z,99084.60
2022-12-23T10:31:40.426Z,99077.42
2022-12-23T10:36:03.106Z,99068.42
2022-12-23T10:40:23.551Z,99059.44
2022-12-23T10:44:31.374Z,99064.07
2022-12-23T10:48:59.339Z,99063.26
2022-12-23T10:53:05.525Z,99051.46
2022-12-23T10:57:08.496Z,99041.56
2022-12-23T11:01:18.878Z,99041.76
2022-12-23T11:05:30.159Z,99031.39
2022-12-23T11:09:52.211Z,99037.02
2022-12-23T11:13:54.645Z,99028.27
2022-12-23T11:18:21.531Z,99025.09
2022-12-23T11:22:25.154Z,99027.76
2022-12-23T11:26:27.083Z,99023.70
2022-12-23T11:30:37.361Z,99020.73
2022-12-23T11:34:44.070Z,99015.73
2022-12-23T11:39:13.881Z,99013.92
2022-12-23T11:43:17.411Z,99016.77
2022-12-23T11:47:22.121Z,99018.56
2022-12-23T11:51:26.339Z,99011.13
2022-12-23T11:55:34.001Z,99012.38
2022-12-23T11:59:48.430Z,99012.10
2022-12-23T12:03:55.054Z,99011.04
2022-12-23T12:08:06.595Z,99011.91
2022-12-23T12:12:18.907Z,99010.38
2022-12-23T12:16:34.901Z,99011.86
2022-12-23T12:20:42.017Z,99008.05
2022-12-23T12:24:52.304Z,99006.01
2022-12-23T12:29:10.103Z,99000.69
2022-12-23T12:33:25.242Z,99007.19
2022-12-23T12:37:33.066Z,99007.68
2022-12-23T12:41:39.257Z,99000.89
2022-12-23T12:45:52.016Z,98997.08
2022-12-23T12:50:01.845Z,98991.95
2022-12-23T12:54:22.209Z,98985.21
2022-12-23T12:58:24.578Z,98984.23
2022-12-23T13:02:26.458Z,98982.89
2022-12-23T13:06:35.744Z,98983.80
2022-12-23T13:10:56.253Z,98986.20
2022-12-23T13:15:20.842Z,98984.23
2022-12-23T13:19:54.710Z,98984.29
2022-12-23T13:24:34.382Z,98987.02
2022-12-23T13:29:09.623Z,98989.80
2022-12-23T13:33:14.766Z,98990.16
2022-12-23T13:37:39.452Z,98988.02
2022-12-23T13:41:50.110Z,98982.30
2022-12-23T13:45:54.655Z,98981.77
2022-12-23T13:50:12.994Z,98975.88
2022-12-23T13:54:39.942Z,98982.77
2022-12-23T13:58:46.642Z,98977.42
2022-12-23T14:03:02.391Z,98977.56
2022-12-23T14:07:19.485Z,98972.02
2022-12-23T14:11:30.417Z,98968.48
2022-12-23T14:15:47.342Z,98972.91
2022-12-23T14:20:20.865Z,98972.73
2022-12-23T14:24:44.934Z,98969.05
2022-12-23T14:29:14.792Z,98973.29
2022-12-23T14:33:32.326Z,98977.78
2022-12-23T14:37:37.475Z,98975.61
2022-12-23T14:41:50.248Z,98974.03
2022-12-23T14:45:56.431Z,98971.45
2022-12-23T14:50:35.618Z,98971.39
2022-12-23T14:54:38.749Z,98971.39
2022-12-23T14:58:52.807Z,98981.46
2022-12-23T15:02:59.032Z,98985.53
2022-12-23T15:07:20.841Z,98985.94
2022-12-23T15:11:27.873Z,98986.33
2022-12-23T15:15:30.675Z,98983.90
2022-12-23T15:19:32.673Z,98979.11
2022-12-23T15:23:34.577Z,98975.98
2022-12-23T15:27:36.917Z,98978.21
2022-12-23T15:31:41.807Z,98977.81
2022-12-23T15:35:43.882Z,98977.20
2022-12-23T15:39:48.842Z,98979.95
2022-12-23T15:43:51.231Z,98979.88
2022-12-23T15:47:53.211Z,98976.70
2022-12-23T15:52:12.407Z,98975.98
2022-12-23T15:56:22.837Z,98984.89
2022-12-23T16:00:39.486Z,98984.84
2022-12-23T16:04:41.701Z,98985.60
2022-12-23T16:08:45.208Z,98982.74
2022-12-23T16:12:51.531Z,98982.46
2022-12-23T16:16:58.897Z,98979.08
2022-12-23T16:21:03.283Z,98977.63
2022-12-23T16:25:14.369Z,98972.16
2022-12-23T16:29:16.507Z,98969.30
2022-12-23T16:33:31.197Z,98968.89
2022-12-23T16:37:33.071Z,98972.23
2022-12-23T16:41:35.632Z,98975.29
2022-12-23T16:45:38.101Z,98973.34
2022-12-23T16:49:40.028Z,98970.54
2022-12-23T16:53:41.940Z,98972.02
2022-12-23T16:57:44.671Z,98977.48
2022-12-23T17:01:48.717Z,98972.89
2022-12-23T17:05:50.686Z,98979.14
2022-12-23T17:09:52.670Z,98975.69
2022-12-23T17:14:01.439Z,98968.20
2022-12-23T17:18:12.333Z,98964.66
2022-12-23T17:22:14.451Z,98967.34
2022-12-23T17:26:16.340Z,98968.05
2022-12-23T17:30:20.996Z,98977.21
2022-12-23T17:34:24.060Z,98979.41
2022-12-23T17:38:29.039Z,98982.91
2022-12-23T17:42:32.323Z,98985.20
2022-12-23T17:46:34.784Z,98985.80
2022-12-23T17:50:38.278Z,98978.80
2022-12-23T17:54:40.258Z,98979.31
2022-12-23T17:58:43.566Z,98977.45
2022-12-23T18:02:46.955Z,98979.67
2022-12-23T18:06:49.053Z,98978.41
2022-12-23T18:10:51.040Z,98969.89
2022-12-23T18:14:53.112Z,98971.13
2022-12-23T18:18:55.219Z,98975.52
2022-12-23T18:22:58.852Z,98984.79
2022-12-23T18:27:01.374Z,98986.93
2022-12-23T18:31:03.406Z,98995.88
2022-12-23T18:35:33.749Z,99000.88
2022-12-23T18:39:35.710Z,99003.05
2022-12-23T18:43:38.167Z,98999.54
2022-12-23T18:47:40.064Z,99004.55
2022-12-23T18:51:43.304Z,99006.70
2022-12-23T18:55:45.577Z,99014.99
2022-12-23T18:59:47.461Z,99016.24
2022-12-23T19:03:49.458Z,99023.98
2022-12-23T19:07:52.706Z,99030.95
2022-12-23T19:11:54.726Z,99028.16
2022-12-23T19:15:57.520Z,99030.00
2022-12-23T19:19:59.876Z,99031.75
2022-12-23T19:24:02.534Z,99035.69
2022-12-23T19:28:04.435Z,99033.58
2022-12-23T19:32:06.469Z,99037.30
2022-12-23T19:36:15.910Z,99040.71
2022-12-23T19:40:18.474Z,99039.85
2022-12-23T19:44:20.424Z,99048.38
2022-12-23T19:48:22.301Z,99050.45
2022-12-23T19:52:24.186Z,99046.77
2022-12-23T19:56:26.962Z,99051.34
2022-12-23T20:00:28.866Z,99053.88
2022-12-23T20:04:31.904Z,99048.10
2022-12-23T20:08:34.344Z,99050.52
2022-12-23T20:12:38.871Z,99058.06
2022-12-23T20:16:41.400Z,99062.34
2022-12-23T20:20:43.838Z,99066.40
2022-12-23T20:24:45.751Z,99067.70
2022-12-23T20:28:48.097Z,99070.27
2022-12-23T20:32:49.966Z,99075.88
2022-12-23T20:36:51.851Z,99076.73
2022-12-23T20:40:53.783Z,99079.67
2022-12-23T20:44:55.781Z,99076.77
2022-12-23T20:48:57.724Z,99071.84
2022-12-23T20:52:59.633Z,99070.96
2022-12-23T20:57:02.287Z,99071.77
2022-12-23T21:01:12.062Z,99068.08
2022-12-23T21:05:16.246Z,99065.29
2022-12-23T21:09:18.424Z,99066.70
2022-12-23T21:13:20.501Z,99067.04
2022-12-23T21:17:23.343Z,99068.63
2022-12-23T21:21:27.624Z,99068.16
2022-12-23T21:25:29.775Z,99067.02
2022-12-23T21:29:31.717Z,99068.05
2022-12-23T21:33:42.246Z,99070.98
2022-12-23T21:37:44.204Z,99067.30
2022-12-23T21:41:48.729Z,99066.63
2022-12-23T21:46:02.778Z,99066.25
2022-12-23T21:50:05.362Z,99070.58
2022-12-23T21:54:09.045Z,99070.07
2022-12-23T21:58:11.112Z,99072.71
2022-12-23T22:02:16.224Z,99075.31
2022-12-23T22:06:33.282Z,99074.90
2022-12-23T22:10:37.967Z,99079.16
2022-12-23T22:14:39.911Z,99079.58
2022-12-23T22:18:42.584Z,99084.92
2022-12-23T22:22:44.481Z,99087.62
2022-12-23T22:26:46.513Z,99089.88
2022-12-23T22:30:49.121Z,99089.34
2022-12-23T22:34:51.084Z,99093.48
2022-12-23T22:38:55.471Z,99096.38
2022-12-23T22:42:57.448Z,99101.23
2022-12-23T22:46:59.339Z,99102.35
2022-12-23T22:51:02.444Z,99103.25
2022-12-23T22:55:05.578Z,99106.65
2022-12-23T22:59:12.058Z,99105.20
2022-12-23T23:03:14.003Z,99106.77
2022-12-23T23:07:15.884Z,99111.77
2022-12-23T23:11:17.830Z,99109.52
2022-12-23T23:15:19.767Z,99102.38
2022-12-23T23:19:21.959Z,99096.71
2022-12-23T23:23:23.895Z,99101.94
2022-12-23T23:27:25.774Z,99103.92
2022-12-23T23:31:44.244Z,99104.89
2022-12-23T23:35:52.301Z,99105.45
2022-12-23T23:39:54.155Z,99109.13
2022-12-23T23:43:56.080Z,99105.98
2022-12-23T23:47:58.069Z,99109.79
2022-12-23T23:51:59.957Z,99109.34
2022-12-23T23:56:06.703Z,99101.30
